createdAt,value
2018-07-30T00:00:07.543Z,22.03
2018-07-30T00:03:06.007Z,21.67
2018-07-30T00:06:04.044Z,22.60
2018-07-30T00:09:02.157Z,22.20
2018-07-30T00:12:01.323Z,22.63
2018-07-30T00:14:59.871Z,18.53
2018-07-30T00:17:59.516Z,19.07
2018-07-30T00:20:58.211Z,18.92
2018-07-30T00:23:56.557Z,18.67
2018-07-30T00:26:55.972Z,18.47
2018-07-30T00:29:54.177Z,19.03
2018-07-30T00:32:52.337Z,18.07
2018-07-30T00:35:50.531Z,17.97
2018-07-30T00:38:48.495Z,18.50
2018-07-30T00:41:47.882Z,19.20
2018-07-30T00:44:45.953Z,21.57
2018-07-30T00:47:44.304Z,18.10
2018-07-30T00:50:42.629Z,18.32
2018-07-30T00:53:40.940Z,18.17
2018-07-30T00:56:39.312Z,18.07
2018-07-30T00:59:37.368Z,17.70
2018-07-30T01:02:35.638Z,16.53
2018-07-30T01:05:33.884Z,18.53
2018-07-30T01:08:32.472Z,19.27
2018-07-30T01:11:30.750Z,17.50
2018-07-30T01:14:29.124Z,20.30
2018-07-30T01:17:27.448Z,20.90
2018-07-30T01:20:26.388Z,20.17
2018-07-30T01:23:24.716Z,20.43
2018-07-30T01:26:42.030Z,19.77
2018-07-30T01:29:39.736Z,23.50
2018-07-30T01:32:38.043Z,25.40
2018-07-30T01:35:37.454Z,29.23
2018-07-30T01:38:35.708Z,25.77
2018-07-30T01:41:34.557Z,21.67
2018-07-30T01:44:33.040Z,25.13
2018-07-30T01:47:32.514Z,22.80
2018-07-30T01:50:33.186Z,21.37
2018-07-30T01:53:31.568Z,22.27
2018-07-30T01:56:30.193Z,22.33
2018-07-30T01:59:28.494Z,22.57
2018-07-30T02:02:27.034Z,20.80
2018-07-30T02:05:25.814Z,26.50
2018-07-30T02:08:24.093Z,26.90
2018-07-30T02:11:22.231Z,23.57
2018-07-30T02:14:20.707Z,24.33
2018-07-30T02:17:18.704Z,23.50
2018-07-30T02:20:17.113Z,23.27
2018-07-30T02:23:16.427Z,25.30
2018-07-30T02:26:14.794Z,23.37
2018-07-30T02:29:13.030Z,24.60
2018-07-30T02:32:11.132Z,24.40
2018-07-30T02:35:09.326Z,24.27
2018-07-30T02:38:07.484Z,22.63
2018-07-30T02:41:05.819Z,20.70
2018-07-30T02:44:04.903Z,22.27
2018-07-30T02:47:03.881Z,21.47
2018-07-30T02:50:03.291Z,21.73
2018-07-30T02:53:01.553Z,26.57
2018-07-30T02:55:59.768Z,25.23
2018-07-30T02:58:58.154Z,26.10
2018-07-30T03:01:55.877Z,27.90
2018-07-30T03:04:54.167Z,23.30
2018-07-30T03:07:52.516Z,25.70
2018-07-30T03:10:50.697Z,22.77
2018-07-30T03:13:52.386Z,23.42
2018-07-30T03:16:50.582Z,25.30
2018-07-30T03:19:49.464Z,22.97
2018-07-30T03:22:47.314Z,21.37
2018-07-30T03:25:45.426Z,21.00
2018-07-30T03:28:43.731Z,21.67
2018-07-30T03:31:41.953Z,25.43
2018-07-30T03:34:40.100Z,22.60
2018-07-30T03:37:38.191Z,22.60
2018-07-30T03:40:37.457Z,21.47
2018-07-30T03:43:35.840Z,22.97
2018-07-30T03:46:34.111Z,26.77
2018-07-30T03:49:32.477Z,29.57
2018-07-30T03:52:30.869Z,22.90
2018-07-30T03:55:30.028Z,23.03
2018-07-30T03:58:29.413Z,24.67
2018-07-30T04:01:27.578Z,26.07
2018-07-30T04:04:26.863Z,27.57
2018-07-30T04:07:25.091Z,27.50
2018-07-30T04:10:23.561Z,26.03
2018-07-30T04:13:21.864Z,29.80
2018-07-30T04:16:20.312Z,33.60
2018-07-30T04:19:18.661Z,33.90
2018-07-30T04:22:17.123Z,30.97
2018-07-30T04:25:15.359Z,27.87
2018-07-30T04:28:13.780Z,27.23
2018-07-30T04:31:12.764Z,25.37
2018-07-30T04:34:12.067Z,29.27
2018-07-30T04:37:10.458Z,29.27
2018-07-30T04:40:08.796Z,34.37
2018-07-30T04:43:06.986Z,31.03
2018-07-30T04:46:05.247Z,27.27
2018-07-30T04:49:03.473Z,26.37
2018-07-30T04:52:01.741Z,28.33
2018-07-30T04:55:01.061Z,28.97
2018-07-30T04:57:59.381Z,27.53
2018-07-30T05:00:58.000Z,26.17
2018-07-30T05:03:56.252Z,26.27
2018-07-30T05:06:54.440Z,27.17
2018-07-30T05:10:02.285Z,27.90
2018-07-30T05:13:01.663Z,29.87
2018-07-30T05:16:00.996Z,29.80
2018-07-30T05:18:58.856Z,31.63
2018-07-30T05:21:58.817Z,23.63
2018-07-30T05:24:58.480Z,26.33
2018-07-30T05:27:57.009Z,22.63
2018-07-30T05:30:55.570Z,24.37
2018-07-30T05:33:53.497Z,22.17
2018-07-30T05:36:52.031Z,21.03
2018-07-30T05:39:50.067Z,24.37
2018-07-30T05:42:48.306Z,21.23
2018-07-30T05:45:46.578Z,23.90
2018-07-30T05:48:45.742Z,20.23
2018-07-30T05:51:43.938Z,20.30
2018-07-30T05:54:42.221Z,18.53
2018-07-30T05:57:40.463Z,18.60
2018-07-30T06:00:38.771Z,18.23
2018-07-30T06:03:37.226Z,16.20
2018-07-30T06:06:35.404Z,15.93
2018-07-30T06:09:33.914Z,14.40
2018-07-30T06:12:32.251Z,16.13
2018-07-30T06:15:30.734Z,13.43
2018-07-30T06:18:29.094Z,12.40
2018-07-30T06:21:27.320Z,13.10
2018-07-30T06:24:26.781Z,11.10
2018-07-30T06:27:26.439Z,14.13
2018-07-30T06:30:25.089Z,11.10
2018-07-30T06:33:23.236Z,13.13
2018-07-30T06:36:21.841Z,13.20
2018-07-30T06:39:21.916Z,10.80
2018-07-30T06:42:20.325Z,9.77
2018-07-30T06:45:20.013Z,13.60
2018-07-30T06:48:17.789Z,10.17
2018-07-30T06:51:17.020Z,9.53
2018-07-30T06:54:15.225Z,10.63
2018-07-30T06:57:14.477Z,9.37
2018-07-30T07:00:14.208Z,10.67
2018-07-30T07:03:12.156Z,8.97
2018-07-30T07:06:10.823Z,9.93
2018-07-30T07:09:08.772Z,11.30
2018-07-30T07:12:07.565Z,10.70
2018-07-30T07:15:05.732Z,10.93
2018-07-30T07:18:04.037Z,11.87
2018-07-30T07:21:02.709Z,12.73
2018-07-30T07:24:00.892Z,10.23
2018-07-30T07:27:00.100Z,9.97
2018-07-30T07:29:58.585Z,12.73
2018-07-30T07:32:58.817Z,10.33
2018-07-30T07:35:57.134Z,11.27
2018-07-30T07:38:57.144Z,18.40
2018-07-30T07:41:56.602Z,10.73
2018-07-30T07:44:54.633Z,16.57
2018-07-30T07:47:54.109Z,12.93
2018-07-30T07:50:53.854Z,12.47
2018-07-30T07:53:52.089Z,10.07
2018-07-30T07:56:52.397Z,9.13
2018-07-30T07:59:50.800Z,17.23
2018-07-30T08:02:48.892Z,15.30
2018-07-30T08:05:46.972Z,14.63
2018-07-30T08:08:45.070Z,10.63
2018-07-30T08:11:43.409Z,9.70
2018-07-30T08:14:41.530Z,8.97
2018-07-30T08:17:40.574Z,11.03
2018-07-30T08:20:38.987Z,11.17
2018-07-30T08:23:38.001Z,8.60
2018-07-30T08:26:37.188Z,10.27
2018-07-30T08:29:35.149Z,9.03
2018-07-30T08:32:33.582Z,19.87
2018-07-30T08:35:31.889Z,9.50
2018-07-30T08:38:30.262Z,10.30
2018-07-30T08:41:28.441Z,9.40
2018-07-30T08:44:26.542Z,7.50
2018-07-30T08:47:25.160Z,8.03
2018-07-30T08:50:23.354Z,9.07
2018-07-30T08:53:22.334Z,9.27
2018-07-30T08:56:20.665Z,6.90
2018-07-30T08:59:18.853Z,7.03
2018-07-30T09:02:17.062Z,8.57
2018-07-30T09:05:16.502Z,8.53
2018-07-30T09:08:15.646Z,15.03
2018-07-30T09:11:15.140Z,10.13
2018-07-30T09:14:13.209Z,8.60
2018-07-30T09:17:11.273Z,7.23
2018-07-30T09:20:10.262Z,11.03
2018-07-30T09:23:08.327Z,6.40
2018-07-30T09:26:06.592Z,7.57
2018-07-30T09:29:04.271Z,6.90
2018-07-30T09:32:03.632Z,7.30
2018-07-30T09:35:01.826Z,6.77
2018-07-30T09:38:00.967Z,6.20
2018-07-30T09:40:59.388Z,8.13
2018-07-30T09:43:57.597Z,9.07
2018-07-30T09:46:55.651Z,7.63
2018-07-30T09:49:55.149Z,6.97
2018-07-30T09:52:54.383Z,6.67
2018-07-30T09:55:52.487Z,6.30
2018-07-30T09:58:50.764Z,7.50
2018-07-30T10:01:48.916Z,7.43
2018-07-30T10:04:51.025Z,5.93
2018-07-30T10:07:49.459Z,13.37
2018-07-30T10:10:47.517Z,8.37
2018-07-30T10:13:45.868Z,9.33
2018-07-30T10:16:44.242Z,5.97
2018-07-30T10:19:42.524Z,7.37
2018-07-30T10:22:40.393Z,5.70
2018-07-30T10:25:38.625Z,9.23
2018-07-30T10:28:39.265Z,11.33
2018-07-30T10:31:37.305Z,5.80
2018-07-30T10:34:36.663Z,5.20
2018-07-30T10:37:34.734Z,8.57
2018-07-30T10:40:32.624Z,5.83
2018-07-30T10:43:31.127Z,7.77
2018-07-30T10:46:29.263Z,5.97
2018-07-30T10:49:27.263Z,6.57
2018-07-30T10:52:26.284Z,8.10
2018-07-30T10:55:24.362Z,8.73
2018-07-30T10:58:22.467Z,6.13
2018-07-30T11:01:21.222Z,5.93
2018-07-30T11:04:19.353Z,5.47
2018-07-30T11:07:18.602Z,6.57
2018-07-30T11:10:16.669Z,5.93
2018-07-30T11:13:15.202Z,5.60
2018-07-30T11:16:13.353Z,20.20
2018-07-30T11:19:12.917Z,8.17
2018-07-30T11:22:11.403Z,5.80
2018-07-30T11:25:09.728Z,5.30
2018-07-30T11:28:08.062Z,5.72
2018-07-30T11:31:06.192Z,4.95
2018-07-30T11:34:04.751Z,5.53
2018-07-30T11:37:03.838Z,4.72
2018-07-30T11:40:01.959Z,4.80
2018-07-30T11:43:00.088Z,4.85
2018-07-30T11:46:04.180Z,5.12
2018-07-30T11:49:02.136Z,5.03
2018-07-30T11:52:00.724Z,4.92
2018-07-30T11:55:00.070Z,4.97
2018-07-30T11:57:58.364Z,5.37
2018-07-30T12:00:56.567Z,5.65
2018-07-30T12:03:54.764Z,5.53
2018-07-30T12:06:53.038Z,5.40
2018-07-30T12:09:51.145Z,5.90
2018-07-30T12:12:50.073Z,7.03
2018-07-30T12:15:48.290Z,6.45
2018-07-30T12:18:46.500Z,4.47
2018-07-30T12:21:44.659Z,4.30
2018-07-30T12:24:42.858Z,6.05
2018-07-30T12:27:40.898Z,4.87
2018-07-30T12:30:40.599Z,4.25
2018-07-30T12:33:38.722Z,6.28
2018-07-30T12:36:37.036Z,6.22
2018-07-30T12:39:36.351Z,5.33
2018-07-30T12:42:34.565Z,3.62
2018-07-30T12:45:39.874Z,4.10
2018-07-30T12:48:37.964Z,6.28
2018-07-30T12:51:36.264Z,5.10
2018-07-30T12:54:35.000Z,8.03
2018-07-30T12:57:33.336Z,3.98
2018-07-30T13:00:32.135Z,6.12
2018-07-30T13:03:31.220Z,4.42
2018-07-30T13:06:29.377Z,4.65
2018-07-30T13:09:29.704Z,5.17
2018-07-30T13:12:27.949Z,3.60
2018-07-30T13:15:25.965Z,4.58
2018-07-30T13:18:24.988Z,4.10
2018-07-30T13:21:24.492Z,3.90
2018-07-30T13:24:22.788Z,4.10
2018-07-30T13:27:20.933Z,4.08
2018-07-30T13:30:20.109Z,4.00
2018-07-30T13:33:18.409Z,4.45
2018-07-30T13:36:16.545Z,3.40
2018-07-30T13:39:14.777Z,4.22
2018-07-30T13:42:12.848Z,4.20
2018-07-30T13:45:10.929Z,5.10
2018-07-30T13:48:09.085Z,6.42
2018-07-30T13:51:07.366Z,3.67
2018-07-30T13:54:05.652Z,3.72
2018-07-30T13:57:04.796Z,4.12
2018-07-30T14:00:03.136Z,4.28
2018-07-30T14:03:02.164Z,3.52
2018-07-30T14:06:00.636Z,4.00
2018-07-30T14:08:58.804Z,3.92
2018-07-30T14:11:56.820Z,3.72
2018-07-30T14:14:55.835Z,6.87
2018-07-30T14:17:53.682Z,11.03
2018-07-30T14:20:52.271Z,6.85
2018-07-30T14:23:50.609Z,6.67
2018-07-30T14:26:48.765Z,5.33
2018-07-30T14:29:46.956Z,5.05
2018-07-30T14:32:46.299Z,4.10
2018-07-30T14:35:44.706Z,5.45
2018-07-30T14:38:43.388Z,3.80
2018-07-30T14:41:41.628Z,4.40
2018-07-30T14:44:48.108Z,4.03
2018-07-30T14:47:46.764Z,4.62
2018-07-30T14:50:44.958Z,3.77
2018-07-30T14:53:43.509Z,5.72
2018-07-30T14:56:41.363Z,6.20
2018-07-30T14:59:39.470Z,5.15
2018-07-30T15:02:37.871Z,4.55
2018-07-30T15:05:36.888Z,5.12
2018-07-30T15:08:35.061Z,4.37
2018-07-30T15:11:33.534Z,3.45
2018-07-30T15:14:31.879Z,4.65
2018-07-30T15:17:32.459Z,3.98
2018-07-30T15:20:30.644Z,3.77
2018-07-30T15:23:29.673Z,4.85
2018-07-30T15:26:27.900Z,3.70
2018-07-30T15:29:27.474Z,4.62
2018-07-30T15:32:25.553Z,3.98
2018-07-30T15:35:23.620Z,3.50
2018-07-30T15:38:22.817Z,4.60
2018-07-30T15:41:21.069Z,3.72
2018-07-30T15:44:19.333Z,3.95
2018-07-30T15:47:21.481Z,5.20
2018-07-30T15:50:21.584Z,4.03
2018-07-30T15:53:20.376Z,4.55
2018-07-30T15:56:18.702Z,6.85
2018-07-30T15:59:17.089Z,4.92
2018-07-30T16:02:15.996Z,3.67
2018-07-30T16:05:14.021Z,4.08
2018-07-30T16:08:12.026Z,6.22
2018-07-30T16:11:11.066Z,4.72
2018-07-30T16:14:09.140Z,4.40
2018-07-30T16:17:07.316Z,3.77
2018-07-30T16:20:05.857Z,3.65
2018-07-30T16:23:03.999Z,3.98
2018-07-30T16:26:01.776Z,4.30
2018-07-30T16:29:00.356Z,5.03
2018-07-30T16:31:58.864Z,4.58
2018-07-30T16:34:57.287Z,3.95
2018-07-30T16:37:55.873Z,4.25
2018-07-30T16:40:54.127Z,4.28
2018-07-30T16:43:52.416Z,4.20
2018-07-30T16:46:50.678Z,4.67
2018-07-30T16:49:48.738Z,4.42
2018-07-30T16:55:49.878Z,4.00
2018-07-30T16:58:47.828Z,4.28
2018-07-30T17:01:45.931Z,4.40
2018-07-30T17:04:43.936Z,5.00
2018-07-30T17:07:41.908Z,4.37
2018-07-30T17:10:39.849Z,4.70
2018-07-30T17:13:39.195Z,5.30
2018-07-30T17:16:37.603Z,7.25
2018-07-30T17:19:35.564Z,5.12
2018-07-30T17:22:33.616Z,7.20
2018-07-30T17:25:31.892Z,6.37
2018-07-30T17:28:30.438Z,5.80
2018-07-30T17:31:28.942Z,5.30
2018-07-30T17:34:27.533Z,5.60
2018-07-30T17:37:25.762Z,5.70
2018-07-30T17:40:24.218Z,6.35
2018-07-30T17:43:22.420Z,8.40
2018-07-30T17:46:21.461Z,8.70
2018-07-30T17:49:19.931Z,6.12
2018-07-30T17:52:18.012Z,7.47
2018-07-30T17:55:17.387Z,5.90
2018-07-30T17:58:15.429Z,7.03
2018-07-30T18:01:13.920Z,6.58
2018-07-30T18:04:11.676Z,7.47
2018-07-30T18:07:10.253Z,6.92
2018-07-30T18:10:08.518Z,7.63
2018-07-30T18:13:06.797Z,7.17
2018-07-30T18:16:05.239Z,8.23
2018-07-30T18:19:03.404Z,8.93
2018-07-30T18:22:02.447Z,8.33
2018-07-30T18:25:01.805Z,10.10
2018-07-30T18:28:00.350Z,115.07
2018-07-30T18:30:59.065Z,22.13
2018-07-30T18:33:58.487Z,33.57
2018-07-30T18:36:57.818Z,68.47
2018-07-30T18:39:55.868Z,124.40
2018-07-30T18:42:54.199Z,21.80
2018-07-30T18:45:52.272Z,56.00
2018-07-30T18:48:50.476Z,41.40
2018-07-30T18:51:49.040Z,17.80
2018-07-30T18:54:48.691Z,22.47
2018-07-30T18:57:46.789Z,25.63
2018-07-30T19:00:45.050Z,22.10
2018-07-30T19:03:43.483Z,17.80
2018-07-30T19:06:41.756Z,20.00
2018-07-30T19:09:39.784Z,16.00
2018-07-30T19:12:38.912Z,16.07
2018-07-30T19:15:38.080Z,15.37
2018-07-30T19:18:36.616Z,13.80
2018-07-30T19:21:35.956Z,11.47
2018-07-30T19:24:34.376Z,12.63
2018-07-30T19:27:33.918Z,9.17
2018-07-30T19:30:32.313Z,10.37
2018-07-30T19:33:31.367Z,11.33
2018-07-30T19:36:31.473Z,9.57
2018-07-30T19:39:31.421Z,9.50
2018-07-30T19:42:29.530Z,11.43
2018-07-30T19:45:28.014Z,12.27
2018-07-30T19:48:27.090Z,10.83
2018-07-30T19:51:27.194Z,10.50
2018-07-30T19:54:25.381Z,14.87
2018-07-30T19:57:23.948Z,11.80
2018-07-30T20:00:23.014Z,11.63
2018-07-30T20:03:21.636Z,10.63
2018-07-30T20:06:20.155Z,12.17
2018-07-30T20:09:20.057Z,12.07
2018-07-30T20:12:18.860Z,15.50
2018-07-30T20:15:18.520Z,13.23
2018-07-30T20:18:17.160Z,11.97
2018-07-30T20:21:15.492Z,15.33
2018-07-30T20:24:14.437Z,19.60
2018-07-30T20:27:12.284Z,13.23
2018-07-30T20:30:10.476Z,15.03
2018-07-30T20:33:09.756Z,15.00
2018-07-30T20:36:07.939Z,18.43
2018-07-30T20:39:07.214Z,17.30
2018-07-30T20:42:05.393Z,15.50
2018-07-30T20:45:04.864Z,16.53
2018-07-30T20:48:03.249Z,16.50
2018-07-30T20:51:01.907Z,16.67
2018-07-30T20:54:00.014Z,15.77
2018-07-30T20:56:59.440Z,14.13
2018-07-30T20:59:57.442Z,14.73
2018-07-30T21:02:57.300Z,13.80
2018-07-30T21:05:55.723Z,13.67
2018-07-30T21:08:53.757Z,15.43
2018-07-30T21:11:52.393Z,13.28
2018-07-30T21:14:50.882Z,13.80
2018-07-30T21:17:49.236Z,14.80
2018-07-30T21:20:47.012Z,13.83
2018-07-30T21:23:45.554Z,15.77
2018-07-30T21:26:43.737Z,14.83
2018-07-30T21:29:41.702Z,14.07
2018-07-30T21:32:39.857Z,17.17
2018-07-30T21:35:38.015Z,14.37
2018-07-30T21:38:36.285Z,15.47
2018-07-30T21:41:34.531Z,15.67
2018-07-30T21:44:32.358Z,16.97
2018-07-30T21:47:30.762Z,15.30
2018-07-30T21:50:28.595Z,16.17
2018-07-30T21:53:27.384Z,15.83
2018-07-30T21:56:25.679Z,15.37
2018-07-30T21:59:24.070Z,16.30
2018-07-30T22:02:22.412Z,16.43
2018-07-30T22:05:24.607Z,18.23
2018-07-30T22:08:23.438Z,15.60
2018-07-30T22:11:22.128Z,18.50
2018-07-30T22:14:20.390Z,16.37
2018-07-30T22:17:18.380Z,15.67
2018-07-30T22:20:17.000Z,17.87
2018-07-30T22:23:15.196Z,18.77
2018-07-30T22:26:18.558Z,17.20
2018-07-30T22:29:16.433Z,18.40
2018-07-30T22:32:14.668Z,19.80
2018-07-30T22:35:14.399Z,21.50
2018-07-30T22:38:12.801Z,19.43
2018-07-30T22:41:11.013Z,17.97
2018-07-30T22:44:09.263Z,20.07
2018-07-30T22:47:07.709Z,21.43
2018-07-30T22:50:05.788Z,17.63
2018-07-30T22:53:04.376Z,19.07
2018-07-30T22:56:02.692Z,19.03
2018-07-30T22:59:01.123Z,18.10
2018-07-30T23:01:59.985Z,19.37
2018-07-30T23:04:58.107Z,22.30
2018-07-30T23:07:56.000Z,20.80
2018-07-30T23:10:55.100Z,18.43
2018-07-30T23:13:54.479Z,22.10
2018-07-30T23:16:52.889Z,20.43
2018-07-30T23:19:51.106Z,19.37
2018-07-30T23:22:49.695Z,22.13
2018-07-30T23:25:48.540Z,19.90
2018-07-30T23:28:46.545Z,19.67
2018-07-30T23:31:44.267Z,19.53
2018-07-30T23:34:43.001Z,22.07
2018-07-30T23:37:41.304Z,20.67
2018-07-30T23:40:39.876Z,19.43
2018-07-30T23:43:38.661Z,22.77
2018-07-30T23:46:37.042Z,20.23
2018-07-30T23:49:35.783Z,21.77
2018-07-30T23:52:34.189Z,21.77
2018-07-30T23:55:33.589Z,19.83
2018-07-30T23:58:31.552Z,20.43
